createdAt,value
2022-09-16T00:00:33.497Z,92.43
2022-09-16T00:03:00.215Z,92.34
2022-09-16T00:05:26.881Z,92.71
2022-09-16T00:07:54.313Z,92.90
2022-09-16T00:10:21.469Z,92.79
2022-09-16T00:12:49.283Z,92.77
2022-09-16T00:15:16.472Z,92.44
2022-09-16T00:17:46.659Z,92.64
2022-09-16T00:20:13.655Z,92.73
2022-09-16T00:22:40.575Z,93.14
2022-09-16T00:25:07.784Z,93.02
2022-09-16T00:27:34.426Z,92.33
2022-09-16T00:30:01.064Z,92.15
2022-09-16T00:32:28.387Z,91.82
2022-09-16T00:34:55.019Z,93.02
2022-09-16T00:37:21.748Z,92.92
2022-09-16T00:39:49.718Z,93.18
2022-09-16T00:42:17.795Z,93.58
2022-09-16T00:45:03.153Z,93.20
2022-09-16T00:47:53.379Z,94.01
2022-09-16T00:50:31.904Z,93.42
2022-09-16T00:53:00.114Z,93.50
2022-09-16T00:55:30.257Z,93.98
2022-09-16T00:58:03.487Z,93.11
2022-09-16T01:00:30.160Z,92.31
2022-09-16T01:02:56.892Z,91.97
2022-09-16T01:05:26.690Z,91.44
2022-09-16T01:07:54.726Z,92.17
2022-09-16T01:10:24.372Z,91.94
2022-09-16T01:13:04.169Z,92.59
2022-09-16T01:15:57.343Z,93.01
2022-09-16T01:18:38.477Z,93.73
2022-09-16T01:21:44.546Z,94.74
2022-09-16T01:24:38.518Z,95.42
2022-09-16T01:27:20.215Z,95.80
2022-09-16T01:30:17.224Z,95.63
2022-09-16T01:33:11.299Z,95.89
2022-09-16T01:35:57.134Z,95.58
2022-09-16T01:39:02.546Z,95.25
2022-09-16T01:41:57.465Z,95.19
2022-09-16T01:44:34.149Z,94.44
2022-09-16T01:47:10.523Z,94.53
2022-09-16T01:49:58.076Z,94.12
2022-09-16T01:52:46.401Z,93.52
2022-09-16T01:55:23.447Z,93.74
2022-09-16T01:57:57.030Z,93.80
2022-09-16T02:00:23.758Z,93.89
2022-09-16T02:02:50.410Z,94.07
2022-09-16T02:05:25.490Z,93.62
2022-09-16T02:07:57.676Z,93.10
2022-09-16T02:10:32.028Z,92.43
2022-09-16T02:13:24.096Z,92.66
2022-09-16T02:15:53.062Z,93.38
2022-09-16T02:18:23.181Z,93.97
2022-09-16T02:20:51.632Z,94.11
2022-09-16T02:23:21.133Z,94.51
2022-09-16T02:25:49.105Z,93.88
2022-09-16T02:28:23.245Z,93.99
2022-09-16T02:30:53.500Z,94.73
2022-09-16T02:33:21.924Z,94.58
2022-09-16T02:35:51.145Z,94.37
2022-09-16T02:38:25.174Z,94.59
2022-09-16T02:40:56.977Z,93.95
2022-09-16T02:43:24.173Z,93.96
2022-09-16T02:46:06.373Z,94.73
2022-09-16T02:48:43.835Z,94.79
2022-09-16T02:51:16.137Z,93.92
2022-09-16T02:53:46.773Z,93.60
2022-09-16T02:56:23.529Z,93.64
2022-09-16T02:58:50.268Z,93.80
2022-09-16T03:01:18.551Z,94.37
2022-09-16T03:03:45.272Z,94.54
2022-09-16T03:06:16.261Z,94.04
2022-09-16T03:08:44.434Z,94.26
2022-09-16T03:11:11.075Z,94.48
2022-09-16T03:13:58.228Z,94.09
2022-09-16T03:16:55.936Z,93.53
2022-09-16T03:20:00.481Z,93.50
2022-09-16T03:22:48.543Z,93.59
2022-09-16T03:25:35.614Z,94.42
2022-09-16T03:28:08.542Z,94.59
2022-09-16T03:30:40.102Z,94.55
2022-09-16T03:33:11.770Z,94.32
2022-09-16T03:35:48.040Z,93.60
2022-09-16T03:38:14.957Z,94.51
2022-09-16T03:40:42.627Z,93.87
2022-09-16T03:43:15.154Z,93.88
2022-09-16T03:45:42.884Z,93.59
2022-09-16T03:48:10.912Z,92.55
2022-09-16T03:50:37.518Z,92.07
2022-09-16T03:53:04.398Z,92.84
2022-09-16T03:55:31.021Z,93.21
2022-09-16T03:57:57.625Z,93.58
2022-09-16T04:00:24.325Z,94.86
2022-09-16T04:02:51.092Z,94.84
2022-09-16T04:05:17.757Z,94.33
2022-09-16T04:07:44.377Z,94.82
2022-09-16T04:10:12.640Z,95.22
2022-09-16T04:12:39.340Z,95.15
2022-09-16T04:15:06.644Z,95.38
2022-09-16T04:17:33.748Z,95.53
2022-09-16T04:20:00.598Z,95.33
2022-09-16T04:22:31.314Z,94.70
2022-09-16T04:24:58.175Z,94.89
2022-09-16T04:27:25.012Z,95.29
2022-09-16T04:29:51.610Z,95.31
2022-09-16T04:32:18.275Z,94.82
2022-09-16T04:34:45.634Z,94.16
2022-09-16T04:37:12.225Z,94.30
2022-09-16T04:39:38.839Z,94.18
2022-09-16T04:42:07.063Z,94.08
2022-09-16T04:44:33.704Z,94.62
2022-09-16T04:47:00.676Z,94.97
2022-09-16T04:49:27.320Z,94.69
2022-09-16T04:51:53.997Z,94.76
2022-09-16T04:54:20.636Z,94.66
2022-09-16T04:56:47.249Z,94.93
2022-09-16T04:59:13.845Z,95.91
2022-09-16T05:01:40.799Z,95.82
2022-09-16T05:04:07.972Z,95.78
2022-09-16T05:06:36.848Z,95.46
2022-09-16T05:09:04.721Z,94.68
2022-09-16T05:11:34.404Z,94.37
2022-09-16T05:14:02.273Z,93.76
2022-09-16T05:16:29.534Z,94.11
2022-09-16T05:18:57.874Z,94.65
2022-09-16T05:21:26.381Z,95.22
2022-09-16T05:23:53.293Z,95.66
2022-09-16T05:26:25.149Z,96.11
2022-09-16T05:28:52.378Z,95.82
2022-09-16T05:31:24.196Z,96.19
2022-09-16T05:34:04.811Z,96.48
2022-09-16T05:36:34.922Z,96.22
2022-09-16T05:39:22.149Z,96.03
2022-09-16T05:41:49.360Z,95.85
2022-09-16T05:44:16.113Z,96.11
2022-09-16T05:46:43.617Z,95.54
2022-09-16T05:49:10.556Z,94.59
2022-09-16T05:51:39.009Z,95.54
2022-09-16T05:54:06.080Z,95.45
2022-09-16T05:56:32.874Z,95.25
2022-09-16T05:59:00.767Z,96.21
2022-09-16T06:01:32.425Z,96.66
2022-09-16T06:04:02.284Z,96.36
2022-09-16T06:06:30.404Z,96.45
2022-09-16T06:08:59.219Z,96.21
2022-09-16T06:11:27.085Z,96.34
2022-09-16T06:14:02.732Z,96.88
2022-09-16T06:16:33.050Z,96.79
2022-09-16T06:19:01.650Z,96.48
2022-09-16T06:21:29.016Z,96.28
2022-09-16T06:23:56.457Z,96.46
2022-09-16T06:26:24.553Z,96.24
2022-09-16T06:28:52.316Z,97.18
2022-09-16T06:31:22.124Z,97.35
2022-09-16T06:33:50.538Z,98.13
2022-09-16T06:36:22.390Z,98.26
2022-09-16T06:38:49.821Z,97.92
2022-09-16T06:41:17.792Z,98.63
2022-09-16T06:43:44.728Z,98.52
2022-09-16T06:46:16.615Z,98.65
2022-09-16T06:48:45.819Z,99.27
2022-09-16T06:51:14.884Z,98.69
2022-09-16T06:53:41.509Z,98.17
2022-09-16T06:56:13.048Z,98.19
2022-09-16T06:58:42.278Z,99.49
2022-09-16T07:01:17.424Z,100.00
2022-09-16T07:03:49.000Z,100.00
2022-09-16T07:06:16.872Z,100.00
2022-09-16T07:08:44.144Z,100.00
2022-09-16T07:11:15.818Z,99.67
2022-09-16T07:13:43.233Z,98.88
2022-09-16T07:16:13.780Z,99.22
2022-09-16T07:18:40.799Z,98.83
2022-09-16T07:21:12.490Z,98.75
2022-09-16T07:23:40.136Z,98.97
2022-09-16T07:26:10.884Z,98.90
2022-09-16T07:28:38.870Z,98.52
2022-09-16T07:31:11.490Z,98.93
2022-09-16T07:33:40.089Z,100.00
2022-09-16T07:36:08.865Z,100.00
2022-09-16T07:38:35.873Z,100.00
2022-09-16T07:41:25.701Z,100.00
2022-09-16T07:43:54.881Z,100.00
2022-09-16T07:46:21.950Z,100.00
2022-09-16T07:48:49.398Z,100.00
2022-09-16T07:51:19.908Z,100.00
2022-09-16T07:53:47.516Z,100.00
2022-09-16T07:56:16.857Z,100.00
2022-09-16T07:58:46.106Z,100.00
2022-09-16T08:01:15.279Z,100.00
2022-09-16T08:03:43.413Z,100.00
2022-09-16T08:06:18.679Z,100.00
2022-09-16T08:08:46.011Z,100.00
2022-09-16T08:11:15.121Z,100.00
2022-09-16T08:13:43.541Z,100.00
2022-09-16T08:16:21.874Z,100.00
2022-09-16T08:18:52.807Z,100.00
2022-09-16T08:21:22.620Z,100.00
2022-09-16T08:23:49.780Z,100.00
2022-09-16T08:26:17.372Z,100.00
2022-09-16T08:29:07.480Z,100.00
2022-09-16T08:31:33.485Z,100.00
2022-09-16T08:34:00.284Z,100.00
2022-09-16T08:36:26.881Z,100.00
2022-09-16T08:38:56.098Z,98.68
2022-09-16T08:41:34.607Z,98.65
2022-09-16T08:44:04.036Z,99.46
2022-09-16T08:46:40.810Z,97.98
2022-09-16T08:49:07.604Z,97.31
2022-09-16T08:51:34.310Z,95.91
2022-09-16T08:54:11.497Z,93.52
2022-09-16T08:56:41.480Z,92.64
2022-09-16T08:59:14.567Z,93.55
2022-09-16T09:01:50.148Z,94.56
2022-09-16T09:04:17.225Z,93.42
2022-09-16T09:06:59.718Z,92.01
2022-09-16T09:09:26.251Z,90.21
2022-09-16T09:11:56.740Z,89.30
2022-09-16T09:14:38.528Z,80.90
2022-09-16T09:17:50.418Z,81.40
2022-09-16T09:20:44.383Z,82.93
2022-09-16T09:23:27.977Z,83.14
2022-09-16T09:26:16.061Z,85.12
2022-09-16T09:29:12.249Z,86.06
2022-09-16T09:32:16.161Z,87.37
2022-09-16T09:35:05.785Z,88.16
2022-09-16T09:37:41.405Z,88.98
2022-09-16T09:40:28.208Z,88.55
2022-09-16T09:43:13.605Z,90.42
2022-09-16T09:46:02.304Z,90.50
2022-09-16T09:48:42.082Z,90.84
2022-09-16T09:51:38.006Z,89.13
2022-09-16T09:54:23.450Z,90.07
2022-09-16T09:56:50.569Z,90.75
2022-09-16T09:59:28.419Z,90.70
2022-09-16T10:01:56.388Z,89.99
2022-09-16T10:04:23.071Z,90.42
2022-09-16T10:06:50.641Z,90.29
2022-09-16T10:09:17.974Z,90.58
2022-09-16T10:11:57.115Z,90.03
2022-09-16T10:14:31.384Z,90.30
2022-09-16T10:17:02.057Z,89.74
2022-09-16T10:19:29.886Z,89.63
2022-09-16T10:22:08.252Z,91.81
2022-09-16T10:24:36.937Z,90.05
2022-09-16T10:27:27.137Z,89.44
2022-09-16T10:33:25.169Z,88.13
2022-09-16T10:36:02.753Z,87.80
2022-09-16T10:38:42.845Z,87.21
2022-09-16T10:41:15.555Z,87.31
2022-09-16T10:43:48.505Z,90.51
2022-09-16T10:46:16.329Z,89.30
2022-09-16T10:48:43.746Z,85.80
2022-09-16T10:51:22.865Z,86.05
2022-09-16T10:53:55.997Z,86.14
2022-09-16T10:56:29.536Z,85.62
2022-09-16T10:59:22.134Z,84.48
2022-09-16T11:02:14.856Z,84.77
2022-09-16T11:04:51.472Z,85.65
2022-09-16T11:07:35.753Z,83.28
2022-09-16T11:10:23.420Z,83.08
2022-09-16T11:12:52.806Z,83.70
2022-09-16T11:15:32.646Z,82.27
2022-09-16T11:18:08.005Z,80.99
2022-09-16T11:20:46.063Z,80.05
2022-09-16T11:23:12.966Z,78.48
2022-09-16T11:25:51.746Z,80.24
2022-09-16T11:28:43.328Z,78.76
2022-09-16T11:31:43.861Z,79.14
2022-09-16T11:34:37.669Z,77.75
2022-09-16T11:37:10.516Z,79.35
2022-09-16T11:39:48.656Z,79.10
2022-09-16T11:42:40.081Z,78.79
2022-09-16T11:45:25.317Z,79.24
2022-09-16T11:48:05.011Z,76.96
2022-09-16T11:50:56.909Z,78.79
2022-09-16T11:54:01.305Z,78.68
2022-09-16T11:56:40.536Z,78.32
2022-09-16T11:59:33.129Z,80.03
2022-09-16T12:02:18.867Z,79.16
2022-09-16T12:04:51.721Z,79.91
2022-09-16T12:07:40.219Z,80.96
2022-09-16T12:10:15.030Z,80.27
2022-09-16T12:12:46.283Z,79.02
2022-09-16T12:15:26.253Z,79.58
2022-09-16T12:17:59.201Z,78.59
2022-09-16T12:20:36.145Z,79.31
2022-09-16T12:23:24.585Z,78.19
2022-09-16T12:26:06.226Z,79.36
2022-09-16T12:28:38.150Z,79.45
2022-09-16T12:31:25.682Z,78.52
2022-09-16T12:34:02.465Z,75.32
2022-09-16T12:36:32.656Z,75.23
2022-09-16T12:38:59.701Z,74.34
2022-09-16T12:42:04.074Z,74.92
2022-09-16T12:45:05.648Z,73.12
2022-09-16T12:47:47.299Z,73.40
2022-09-16T12:50:32.356Z,72.28
2022-09-16T12:53:36.297Z,74.27
2022-09-16T12:56:12.600Z,73.51
2022-09-16T12:58:39.164Z,72.61
2022-09-16T13:01:19.588Z,73.22
2022-09-16T13:03:52.903Z,72.60
2022-09-16T13:06:32.500Z,73.34
2022-09-16T13:09:19.670Z,70.09
2022-09-16T13:14:52.130Z,70.50
2022-09-16T13:17:37.628Z,70.88
2022-09-16T13:20:22.574Z,69.68
2022-09-16T13:23:11.449Z,69.20
2022-09-16T13:25:56.823Z,67.79
2022-09-16T13:28:26.533Z,69.31
2022-09-16T13:30:53.448Z,69.47
2022-09-16T13:33:29.122Z,68.62
2022-09-16T13:36:25.561Z,69.36
2022-09-16T13:38:57.155Z,69.50
2022-09-16T13:41:29.517Z,70.59
2022-09-16T13:43:56.178Z,70.74
2022-09-16T13:46:34.907Z,69.43
2022-09-16T13:49:11.067Z,69.49
2022-09-16T13:51:46.467Z,69.29
2022-09-16T13:54:25.672Z,70.51
2022-09-16T13:57:14.222Z,69.87
2022-09-16T14:00:06.791Z,71.56
2022-09-16T14:02:39.839Z,72.73
2022-09-16T14:05:29.822Z,70.55
2022-09-16T14:08:05.178Z,70.82
2022-09-16T14:10:43.393Z,72.92
2022-09-16T14:13:17.408Z,72.16
2022-09-16T14:15:50.640Z,71.26
2022-09-16T14:18:26.325Z,74.06
2022-09-16T14:20:55.697Z,73.62
2022-09-16T14:23:24.041Z,73.14
2022-09-16T14:25:53.474Z,75.04
2022-09-16T14:28:27.253Z,74.07
2022-09-16T14:30:53.953Z,74.23
2022-09-16T14:33:27.822Z,75.48
2022-09-16T14:35:56.472Z,74.24
2022-09-16T14:41:46.385Z,75.52
2022-09-16T14:44:12.941Z,74.90
2022-09-16T14:46:45.153Z,76.14
2022-09-16T14:49:13.666Z,72.73
2022-09-16T14:51:44.242Z,74.10
2022-09-16T14:54:22.296Z,76.71
2022-09-16T14:56:59.528Z,73.99
2022-09-16T14:59:35.089Z,74.57
2022-09-16T15:02:09.093Z,74.75
2022-09-16T15:04:39.216Z,75.21
2022-09-16T15:07:12.902Z,76.31
2022-09-16T15:09:49.850Z,77.59
2022-09-16T15:12:28.759Z,79.21
2022-09-16T15:14:55.617Z,81.41
2022-09-16T15:17:26.006Z,78.69
2022-09-16T15:20:01.607Z,75.53
2022-09-16T15:22:28.262Z,72.83
2022-09-16T15:24:57.270Z,74.81
2022-09-16T15:27:29.075Z,73.47
2022-09-16T15:29:59.438Z,70.08
2022-09-16T15:32:30.853Z,70.18
2022-09-16T15:35:24.276Z,69.93
2022-09-16T15:37:54.329Z,66.57
2022-09-16T15:40:27.062Z,66.39
2022-09-16T15:43:13.196Z,67.50
2022-09-16T15:45:40.950Z,67.82
2022-09-16T15:48:18.668Z,68.42
2022-09-16T15:50:54.620Z,67.20
2022-09-16T15:53:30.117Z,67.45
2022-09-16T15:56:04.745Z,66.73
2022-09-16T15:58:42.029Z,66.75
2022-09-16T16:01:35.545Z,65.29
2022-09-16T16:04:04.593Z,66.44
2022-09-16T16:06:46.449Z,65.48
2022-09-16T16:09:29.112Z,67.63
2022-09-16T16:12:17.208Z,66.24
2022-09-16T16:14:44.195Z,64.86
2022-09-16T16:17:16.541Z,65.21
2022-09-16T16:19:44.622Z,64.79
2022-09-16T16:22:12.250Z,64.30
2022-09-16T16:24:39.070Z,66.40
2022-09-16T16:27:06.084Z,65.82
2022-09-16T16:29:32.681Z,65.68
2022-09-16T16:32:10.921Z,67.56
2022-09-16T16:34:39.740Z,66.49
2022-09-16T16:37:07.485Z,66.91
2022-09-16T16:39:34.734Z,66.29
2022-09-16T16:42:02.197Z,66.50
2022-09-16T16:44:28.785Z,66.14
2022-09-16T16:46:56.046Z,68.23
2022-09-16T16:49:23.792Z,67.83
2022-09-16T16:51:51.846Z,67.20
2022-09-16T16:54:19.192Z,68.28
2022-09-16T16:56:46.693Z,67.06
2022-09-16T16:59:13.993Z,68.27
2022-09-16T17:01:46.563Z,68.25
2022-09-16T17:04:15.285Z,67.53
2022-09-16T17:06:42.212Z,68.50
2022-09-16T17:09:14.991Z,67.97
2022-09-16T17:11:56.352Z,68.36
2022-09-16T17:14:24.955Z,67.97
2022-09-16T17:16:52.333Z,67.23
2022-09-16T17:19:19.385Z,68.83
2022-09-16T17:21:46.648Z,67.78
2022-09-16T17:24:13.349Z,67.77
2022-09-16T17:26:40.148Z,67.72
2022-09-16T17:29:14.794Z,70.65
2022-09-16T17:31:42.770Z,69.08
2022-09-16T17:34:12.556Z,69.39
2022-09-16T17:36:43.287Z,70.86
2022-09-16T17:39:15.464Z,72.57
2022-09-16T17:41:46.004Z,73.97
2022-09-16T17:44:13.657Z,75.94
2022-09-16T17:46:41.533Z,75.32
2022-09-16T17:49:13.328Z,75.27
2022-09-16T17:51:40.201Z,75.58
2022-09-16T17:54:08.793Z,77.31
2022-09-16T17:56:35.774Z,76.91
2022-09-16T17:59:02.419Z,76.51
2022-09-16T18:01:30.803Z,77.21
2022-09-16T18:03:58.059Z,78.60
2022-09-16T18:06:31.065Z,77.95
2022-09-16T18:09:01.126Z,78.75
2022-09-16T18:11:27.851Z,77.75
2022-09-16T18:13:58.884Z,77.90
2022-09-16T18:16:26.283Z,80.10
2022-09-16T18:18:55.553Z,79.77
2022-09-16T18:21:23.928Z,79.74
2022-09-16T18:24:00.577Z,80.14
2022-09-16T18:26:27.509Z,81.32
2022-09-16T18:29:11.769Z,81.04
2022-09-16T18:31:44.868Z,80.75
2022-09-16T18:34:12.390Z,80.53
2022-09-16T18:36:39.732Z,81.03
2022-09-16T18:39:08.053Z,80.58
2022-09-16T18:41:37.188Z,80.33
2022-09-16T18:44:10.787Z,80.65
2022-09-16T18:46:38.543Z,82.60
2022-09-16T18:49:06.483Z,82.05
2022-09-16T18:51:37.966Z,81.65
2022-09-16T18:54:16.888Z,82.38
2022-09-16T18:56:43.485Z,83.39
2022-09-16T18:59:21.545Z,82.99
2022-09-16T19:01:53.899Z,83.68
2022-09-16T19:04:26.355Z,83.61
2022-09-16T19:06:55.807Z,84.53
2022-09-16T19:09:23.728Z,85.20
2022-09-16T19:11:52.880Z,84.25
2022-09-16T19:14:22.513Z,83.92
2022-09-16T19:16:49.631Z,83.93
2022-09-16T19:19:16.585Z,84.43
2022-09-16T19:21:43.857Z,83.93
2022-09-16T19:24:16.227Z,84.52
2022-09-16T19:26:44.057Z,84.08
2022-09-16T19:29:11.614Z,82.08
2022-09-16T19:31:39.813Z,80.89
2022-09-16T19:34:07.006Z,80.45
2022-09-16T19:36:34.885Z,81.71
2022-09-16T19:39:02.130Z,83.11
2022-09-16T19:41:30.998Z,80.60
2022-09-16T19:43:59.894Z,81.24
2022-09-16T19:46:27.341Z,82.30
2022-09-16T19:48:54.766Z,82.35
2022-09-16T19:51:22.974Z,81.91
2022-09-16T19:53:50.269Z,82.77
2022-09-16T19:56:21.380Z,82.78
2022-09-16T19:58:48.646Z,82.05
2022-09-16T20:01:21.396Z,80.11
2022-09-16T20:03:51.397Z,79.19
2022-09-16T20:06:20.690Z,80.20
2022-09-16T20:08:48.802Z,77.54
2022-09-16T20:11:18.255Z,77.29
2022-09-16T20:13:51.324Z,76.76
2022-09-16T20:16:19.145Z,75.68
2022-09-16T20:18:45.905Z,76.74
2022-09-16T20:21:15.120Z,77.08
2022-09-16T20:23:42.325Z,76.29
2022-09-16T20:26:09.881Z,76.76
2022-09-16T20:28:38.944Z,76.87
2022-09-16T20:31:05.983Z,77.74
2022-09-16T20:33:33.640Z,79.27
2022-09-16T20:36:09.972Z,78.68
2022-09-16T20:38:37.781Z,78.77
2022-09-16T20:41:12.628Z,76.54
2022-09-16T20:43:39.494Z,78.32
2022-09-16T20:46:27.412Z,79.33
2022-09-16T20:48:58.674Z,79.24
2022-09-16T20:51:27.954Z,79.10
2022-09-16T20:53:56.767Z,79.45
2022-09-16T20:56:24.258Z,79.46
2022-09-16T20:58:51.194Z,79.74
2022-09-16T21:01:22.766Z,79.13
2022-09-16T21:03:58.331Z,78.19
2022-09-16T21:06:25.933Z,78.53
2022-09-16T21:08:56.617Z,77.07
2022-09-16T21:11:23.521Z,78.23
2022-09-16T21:14:08.704Z,78.32
2022-09-16T21:16:37.437Z,77.97
2022-09-16T21:19:06.898Z,79.04
2022-09-16T21:21:33.821Z,79.91
2022-09-16T21:24:03.081Z,80.57
2022-09-16T21:26:31.958Z,80.92
2022-09-16T21:29:00.641Z,81.34
2022-09-16T21:31:29.301Z,79.13
2022-09-16T21:33:56.951Z,80.14
2022-09-16T21:36:24.855Z,80.58
2022-09-16T21:38:52.053Z,79.40
2022-09-16T21:41:21.375Z,79.54
2022-09-16T21:43:51.321Z,77.53
2022-09-16T21:46:23.271Z,78.82
2022-09-16T21:48:50.531Z,79.75
2022-09-16T21:51:19.180Z,78.63
2022-09-16T21:53:46.799Z,77.84
2022-09-16T21:56:15.998Z,77.86
2022-09-16T21:58:42.747Z,79.40
2022-09-16T22:01:21.527Z,79.39
2022-09-16T22:03:53.729Z,78.06
2022-09-16T22:06:22.268Z,78.62
2022-09-16T22:08:49.353Z,80.36
2022-09-16T22:11:17.694Z,80.72
2022-09-16T22:13:44.467Z,79.41
2022-09-16T22:16:18.660Z,79.45
2022-09-16T22:18:45.379Z,77.53
2022-09-16T22:21:13.709Z,77.78
2022-09-16T22:23:41.727Z,77.40
2022-09-16T22:26:13.037Z,77.69
2022-09-16T22:28:40.220Z,77.58
2022-09-16T22:31:10.476Z,78.10
2022-09-16T22:33:38.494Z,76.83
2022-09-16T22:36:07.843Z,76.62
2022-09-16T22:38:34.838Z,76.27
2022-09-16T22:41:09.493Z,75.80
2022-09-16T22:43:37.427Z,75.89
2022-09-16T22:46:08.796Z,76.34
2022-09-16T22:48:35.835Z,76.34
2022-09-16T22:51:03.020Z,76.73
2022-09-16T22:53:30.765Z,75.02
2022-09-16T22:56:02.498Z,75.80
2022-09-16T22:58:29.677Z,76.11
2022-09-16T23:01:14.043Z,76.34
2022-09-16T23:03:41.263Z,76.88
2022-09-16T23:06:10.988Z,76.64
2022-09-16T23:08:41.106Z,76.32
2022-09-16T23:11:14.747Z,75.62
2022-09-16T23:13:42.593Z,76.71
2022-09-16T23:16:20.807Z,75.92
2022-09-16T23:18:47.941Z,77.40
2022-09-16T23:21:16.609Z,76.10
2022-09-16T23:23:46.270Z,75.72
2022-09-16T23:26:16.523Z,75.67
2022-09-16T23:28:43.201Z,75.76
2022-09-16T23:31:15.701Z,76.15
2022-09-16T23:33:42.934Z,75.88
2022-09-16T23:36:11.281Z,76.51
2022-09-16T23:38:38.679Z,75.79
2022-09-16T23:41:10.796Z,75.63
2022-09-16T23:43:38.465Z,75.35
2022-09-16T23:46:05.551Z,75.50
2022-09-16T23:48:32.428Z,75.79
2022-09-16T23:50:59.319Z,77.33
2022-09-16T23:53:25.978Z,76.33
2022-09-16T23:55:52.653Z,76.12
2022-09-16T23:58:19.541Z,75.61
